sensor_id;sensor_type;location;lat;lon;timestamp;temperature;humidity
15937;DHT22;9163;48.818;8.976;2022-12-13T00:01:19;-6.90;99.90
15937;DHT22;9163;48.818;8.976;2022-12-13T00:03:47;-7.00;99.90
15937;DHT22;9163;48.818;8.976;2022-12-13T00:06:14;-7.10;99.90
15937;DHT22;9163;48.818;8.976;2022-12-13T00:08:41;-7.10;99.90
15937;DHT22;9163;48.818;8.976;2022-12-13T00:11:11;-7.20;99.90
15937;DHT22;9163;48.818;8.976;2022-12-13T00:13:39;-7.30;99.90
15937;DHT22;9163;48.818;8.976;2022-12-13T00:16:09;-7.30;99.90
15937;DHT22;9163;48.818;8.976;2022-12-13T00:18:38;-7.30;99.90
15937;DHT22;9163;48.818;8.976;2022-12-13T00:21:07;-7.40;99.90
15937;DHT22;9163;48.818;8.976;2022-12-13T00:23:34;-7.40;99.90
15937;DHT22;9163;48.818;8.976;2022-12-13T00:26:02;-7.30;99.90
15937;DHT22;9163;48.818;8.976;2022-12-13T00:28:30;-7.40;99.90
15937;DHT22;9163;48.818;8.976;2022-12-13T00:30:57;-7.40;99.90
15937;DHT22;9163;48.818;8.976;2022-12-13T00:33:24;-7.40;99.90
15937;DHT22;9163;48.818;8.976;2022-12-13T00:35:53;-7.40;99.90
15937;DHT22;9163;48.818;8.976;2022-12-13T00:38:21;-7.40;99.90
15937;DHT22;9163;48.818;8.976;2022-12-13T00:40:48;-7.40;99.90
15937;DHT22;9163;48.818;8.976;2022-12-13T00:43:16;-7.40;99.90
15937;DHT22;9163;48.818;8.976;2022-12-13T00:45:43;-7.50;99.90
15937;DHT22;9163;48.818;8.976;2022-12-13T00:48:10;-7.40;99.90
15937;DHT22;9163;48.818;8.976;2022-12-13T00:50:38;-7.40;99.90
15937;DHT22;9163;48.818;8.976;2022-12-13T00:53:06;-7.40;99.90
15937;DHT22;9163;48.818;8.976;2022-12-13T00:55:38;-7.40;99.90
15937;DHT22;9163;48.818;8.976;2022-12-13T00:58:05;-7.40;99.90
15937;DHT22;9163;48.818;8.976;2022-12-13T01:00:33;-7.40;99.90
15937;DHT22;9163;48.818;8.976;2022-12-13T01:03:00;-7.30;99.90
15937;DHT22;9163;48.818;8.976;2022-12-13T01:05:45;-7.30;99.90
15937;DHT22;9163;48.818;8.976;2022-12-13T01:08:14;-7.30;99.90
15937;DHT22;9163;48.818;8.976;2022-12-13T01:10:42;-7.30;99.90
15937;DHT22;9163;48.818;8.976;2022-12-13T01:13:10;-7.30;99.90
15937;DHT22;9163;48.818;8.976;2022-12-13T01:15:40;-7.40;99.90
15937;DHT22;9163;48.818;8.976;2022-12-13T01:18:08;-7.40;99.90
15937;DHT22;9163;48.818;8.976;2022-12-13T01:20:35;-7.40;99.90
15937;DHT22;9163;48.818;8.976;2022-12-13T01:23:03;-7.20;99.90
15937;DHT22;9163;48.818;8.976;2022-12-13T01:25:32;-7.10;99.90
15937;DHT22;9163;48.818;8.976;2022-12-13T01:27:59;-7.10;99.90
15937;DHT22;9163;48.818;8.976;2022-12-13T01:30:26;-7.10;99.90
15937;DHT22;9163;48.818;8.976;2022-12-13T01:32:53;-7.10;99.90
15937;DHT22;9163;48.818;8.976;2022-12-13T01:35:20;-7.10;99.90
15937;DHT22;9163;48.818;8.976;2022-12-13T01:37:48;-7.10;99.90
15937;DHT22;9163;48.818;8.976;2022-12-13T01:40:15;-7.10;99.90
15937;DHT22;9163;48.818;8.976;2022-12-13T01:42:44;-7.10;99.90
15937;DHT22;9163;48.818;8.976;2022-12-13T01:45:23;-7.20;99.90
15937;DHT22;9163;48.818;8.976;2022-12-13T01:47:53;-7.30;99.90
15937;DHT22;9163;48.818;8.976;2022-12-13T01:50:26;-7.40;99.90
15937;DHT22;9163;48.818;8.976;2022-12-13T01:52:55;-7.50;99.90
15937;DHT22;9163;48.818;8.976;2022-12-13T01:55:25;-7.60;99.90
15937;DHT22;9163;48.818;8.976;2022-12-13T01:57:56;-7.50;99.90
15937;DHT22;9163;48.818;8.976;2022-12-13T02:00:26;-7.50;99.90
15937;DHT22;9163;48.818;8.976;2022-12-13T02:02:56;-7.50;99.90
15937;DHT22;9163;48.818;8.976;2022-12-13T02:05:27;-7.50;99.90
15937;DHT22;9163;48.818;8.976;2022-12-13T02:07:59;-7.60;99.90
15937;DHT22;9163;48.818;8.976;2022-12-13T02:10:27;-7.70;99.90
15937;DHT22;9163;48.818;8.976;2022-12-13T02:12:56;-7.70;99.90
15937;DHT22;9163;48.818;8.976;2022-12-13T02:15:27;-7.80;99.90
15937;DHT22;9163;48.818;8.976;2022-12-13T02:18:16;-7.90;99.90
15937;DHT22;9163;48.818;8.976;2022-12-13T02:21:10;-7.90;99.90
15937;DHT22;9163;48.818;8.976;2022-12-13T02:24:05;-8.00;99.90
15937;DHT22;9163;48.818;8.976;2022-12-13T02:26:45;-8.00;99.90
15937;DHT22;9163;48.818;8.976;2022-12-13T02:29:39;-8.00;99.90
15937;DHT22;9163;48.818;8.976;2022-12-13T02:32:20;-8.00;99.90
15937;DHT22;9163;48.818;8.976;2022-12-13T02:34:53;-8.00;99.90
15937;DHT22;9163;48.818;8.976;2022-12-13T02:37:24;-8.00;99.90
15937;DHT22;9163;48.818;8.976;2022-12-13T02:39:56;-8.00;99.90
15937;DHT22;9163;48.818;8.976;2022-12-13T02:42:26;-8.00;99.90
15937;DHT22;9163;48.818;8.976;2022-12-13T02:45:09;-8.00;99.90
15937;DHT22;9163;48.818;8.976;2022-12-13T02:47:40;-8.10;99.90
15937;DHT22;9163;48.818;8.976;2022-12-13T02:50:10;-8.10;99.90
15937;DHT22;9163;48.818;8.976;2022-12-13T02:52:39;-8.10;99.90
15937;DHT22;9163;48.818;8.976;2022-12-13T02:55:12;-8.10;99.90
15937;DHT22;9163;48.818;8.976;2022-12-13T02:57:40;-8.20;99.90
15937;DHT22;9163;48.818;8.976;2022-12-13T03:00:11;-8.20;99.90
15937;DHT22;9163;48.818;8.976;2022-12-13T03:03:04;-8.20;99.90
15937;DHT22;9163;48.818;8.976;2022-12-13T03:05:38;-8.20;99.90
15937;DHT22;9163;48.818;8.976;2022-12-13T03:08:29;-8.20;99.90
15937;DHT22;9163;48.818;8.976;2022-12-13T03:11:04;-8.20;99.90
15937;DHT22;9163;48.818;8.976;2022-12-13T03:13:36;-8.10;99.90
15937;DHT22;9163;48.818;8.976;2022-12-13T03:16:17;-8.20;99.90
15937;DHT22;9163;48.818;8.976;2022-12-13T03:18:49;-8.30;99.90
15937;DHT22;9163;48.818;8.976;2022-12-13T03:21:17;-8.30;99.90
15937;DHT22;9163;48.818;8.976;2022-12-13T03:23:45;-8.20;99.90
15937;DHT22;9163;48.818;8.976;2022-12-13T03:26:14;-8.20;99.90
15937;DHT22;9163;48.818;8.976;2022-12-13T03:28:42;-8.20;99.90
15937;DHT22;9163;48.818;8.976;2022-12-13T03:31:09;-8.20;99.90
15937;DHT22;9163;48.818;8.976;2022-12-13T03:33:37;-8.10;99.90
15937;DHT22;9163;48.818;8.976;2022-12-13T03:36:07;-8.10;99.90
15937;DHT22;9163;48.818;8.976;2022-12-13T03:38:35;-8.10;99.90
15937;DHT22;9163;48.818;8.976;2022-12-13T03:41:06;-8.10;99.90
15937;DHT22;9163;48.818;8.976;2022-12-13T03:43:35;-8.10;99.90
15937;DHT22;9163;48.818;8.976;2022-12-13T03:46:02;-8.10;99.90
15937;DHT22;9163;48.818;8.976;2022-12-13T03:48:29;-8.10;99.90
15937;DHT22;9163;48.818;8.976;2022-12-13T03:50:57;-8.10;99.90
15937;DHT22;9163;48.818;8.976;2022-12-13T03:53:25;-8.10;99.90
15937;DHT22;9163;48.818;8.976;2022-12-13T03:55:53;-8.20;99.90
15937;DHT22;9163;48.818;8.976;2022-12-13T03:58:20;-8.10;99.90
15937;DHT22;9163;48.818;8.976;2022-12-13T04:00:50;-8.10;99.90
15937;DHT22;9163;48.818;8.976;2022-12-13T04:03:17;-8.10;99.90
15937;DHT22;9163;48.818;8.976;2022-12-13T04:05:44;-8.10;99.90
15937;DHT22;9163;48.818;8.976;2022-12-13T04:08:12;-8.10;99.90
15937;DHT22;9163;48.818;8.976;2022-12-13T04:10:40;-8.10;99.90
15937;DHT22;9163;48.818;8.976;2022-12-13T04:13:09;-8.10;99.90
15937;DHT22;9163;48.818;8.976;2022-12-13T04:15:54;-8.10;99.90
15937;DHT22;9163;48.818;8.976;2022-12-13T04:18:21;-8.10;99.90
15937;DHT22;9163;48.818;8.976;2022-12-13T04:20:48;-8.10;99.90
15937;DHT22;9163;48.818;8.976;2022-12-13T04:23:15;-8.10;99.90
15937;DHT22;9163;48.818;8.976;2022-12-13T04:25:44;-8.20;99.90
15937;DHT22;9163;48.818;8.976;2022-12-13T04:28:12;-8.20;99.90
15937;DHT22;9163;48.818;8.976;2022-12-13T04:30:39;-8.20;99.90
15937;DHT22;9163;48.818;8.976;2022-12-13T04:33:06;-8.20;99.90
15937;DHT22;9163;48.818;8.976;2022-12-13T04:35:33;-8.20;99.90
15937;DHT22;9163;48.818;8.976;2022-12-13T04:38:00;-8.20;99.90
15937;DHT22;9163;48.818;8.976;2022-12-13T04:40:28;-8.10;99.90
15937;DHT22;9163;48.818;8.976;2022-12-13T04:42:56;-8.10;99.90
15937;DHT22;9163;48.818;8.976;2022-12-13T04:45:23;-8.10;99.90
15937;DHT22;9163;48.818;8.976;2022-12-13T04:47:51;-8.10;99.90
15937;DHT22;9163;48.818;8.976;2022-12-13T04:50:18;-8.10;99.90
15937;DHT22;9163;48.818;8.976;2022-12-13T04:52:45;-8.20;99.90
15937;DHT22;9163;48.818;8.976;2022-12-13T04:55:13;-8.20;99.90
15937;DHT22;9163;48.818;8.976;2022-12-13T04:57:40;-8.20;99.90
15937;DHT22;9163;48.818;8.976;2022-12-13T05:00:11;-8.20;99.90
15937;DHT22;9163;48.818;8.976;2022-12-13T05:02:39;-8.20;99.90
15937;DHT22;9163;48.818;8.976;2022-12-13T05:05:08;-8.30;99.90
15937;DHT22;9163;48.818;8.976;2022-12-13T05:07:36;-8.30;99.90
15937;DHT22;9163;48.818;8.976;2022-12-13T05:10:04;-8.30;99.90
15937;DHT22;9163;48.818;8.976;2022-12-13T05:12:31;-8.30;99.90
15937;DHT22;9163;48.818;8.976;2022-12-13T05:14:58;-8.30;99.90
15937;DHT22;9163;48.818;8.976;2022-12-13T05:17:26;-8.30;99.90
15937;DHT22;9163;48.818;8.976;2022-12-13T05:19:54;-8.30;99.90
15937;DHT22;9163;48.818;8.976;2022-12-13T05:22:21;-8.40;99.90
15937;DHT22;9163;48.818;8.976;2022-12-13T05:24:48;-8.30;99.90
15937;DHT22;9163;48.818;8.976;2022-12-13T05:27:16;-8.40;99.90
15937;DHT22;9163;48.818;8.976;2022-12-13T05:29:43;-8.30;99.90
15937;DHT22;9163;48.818;8.976;2022-12-13T05:32:10;-8.40;99.90
15937;DHT22;9163;48.818;8.976;2022-12-13T05:34:39;-8.40;99.90
15937;DHT22;9163;48.818;8.976;2022-12-13T05:37:06;-8.40;99.90
15937;DHT22;9163;48.818;8.976;2022-12-13T05:39:33;-8.40;99.90
15937;DHT22;9163;48.818;8.976;2022-12-13T05:42:00;-8.50;99.90
15937;DHT22;9163;48.818;8.976;2022-12-13T05:44:27;-8.50;99.90
15937;DHT22;9163;48.818;8.976;2022-12-13T05:46:55;-8.50;99.90
15937;DHT22;9163;48.818;8.976;2022-12-13T05:49:22;-8.50;99.90
15937;DHT22;9163;48.818;8.976;2022-12-13T05:51:50;-8.50;99.90
15937;DHT22;9163;48.818;8.976;2022-12-13T05:54:18;-8.50;99.90
15937;DHT22;9163;48.818;8.976;2022-12-13T05:56:45;-8.50;99.90
15937;DHT22;9163;48.818;8.976;2022-12-13T05:59:12;-8.50;99.90
15937;DHT22;9163;48.818;8.976;2022-12-13T06:01:39;-8.40;99.90
15937;DHT22;9163;48.818;8.976;2022-12-13T06:04:07;-8.40;99.90
15937;DHT22;9163;48.818;8.976;2022-12-13T06:06:34;-8.40;99.90
15937;DHT22;9163;48.818;8.976;2022-12-13T06:09:03;-8.30;99.90
15937;DHT22;9163;48.818;8.976;2022-12-13T06:11:30;-8.40;99.90
15937;DHT22;9163;48.818;8.976;2022-12-13T06:13:57;-8.40;99.90
15937;DHT22;9163;48.818;8.976;2022-12-13T06:16:24;-8.50;99.90
15937;DHT22;9163;48.818;8.976;2022-12-13T06:18:52;-8.50;99.90
15937;DHT22;9163;48.818;8.976;2022-12-13T06:21:19;-8.50;99.90
15937;DHT22;9163;48.818;8.976;2022-12-13T06:23:46;-8.50;99.90
15937;DHT22;9163;48.818;8.976;2022-12-13T06:26:15;-8.50;99.90
15937;DHT22;9163;48.818;8.976;2022-12-13T06:28:42;-8.40;99.90
15937;DHT22;9163;48.818;8.976;2022-12-13T06:31:09;-8.50;99.90
15937;DHT22;9163;48.818;8.976;2022-12-13T06:33:36;-8.50;99.90
15937;DHT22;9163;48.818;8.976;2022-12-13T06:36:04;-8.50;99.90
15937;DHT22;9163;48.818;8.976;2022-12-13T06:38:32;-8.50;99.90
15937;DHT22;9163;48.818;8.976;2022-12-13T06:41:09;-8.50;99.90
15937;DHT22;9163;48.818;8.976;2022-12-13T06:43:40;-8.50;99.90
15937;DHT22;9163;48.818;8.976;2022-12-13T06:46:08;-8.50;99.90
15937;DHT22;9163;48.818;8.976;2022-12-13T06:48:35;-8.50;99.90
15937;DHT22;9163;48.818;8.976;2022-12-13T06:51:03;-8.50;99.90
15937;DHT22;9163;48.818;8.976;2022-12-13T06:53:31;-8.50;99.90
15937;DHT22;9163;48.818;8.976;2022-12-13T06:56:02;-8.60;99.90
15937;DHT22;9163;48.818;8.976;2022-12-13T06:58:29;-8.60;99.90
15937;DHT22;9163;48.818;8.976;2022-12-13T07:01:04;-8.60;99.90
15937;DHT22;9163;48.818;8.976;2022-12-13T07:03:33;-8.60;99.90
15937;DHT22;9163;48.818;8.976;2022-12-13T07:06:04;-8.60;99.90
15937;DHT22;9163;48.818;8.976;2022-12-13T07:08:32;-8.50;99.90
15937;DHT22;9163;48.818;8.976;2022-12-13T07:11:01;-8.50;99.90
15937;DHT22;9163;48.818;8.976;2022-12-13T07:13:28;-8.50;99.90
15937;DHT22;9163;48.818;8.976;2022-12-13T07:15:55;-8.50;99.90
15937;DHT22;9163;48.818;8.976;2022-12-13T07:18:24;-8.50;99.90
15937;DHT22;9163;48.818;8.976;2022-12-13T07:20:52;-8.50;99.90
15937;DHT22;9163;48.818;8.976;2022-12-13T07:23:19;-8.40;99.90
15937;DHT22;9163;48.818;8.976;2022-12-13T07:25:50;-8.30;99.90
15937;DHT22;9163;48.818;8.976;2022-12-13T07:28:19;-8.20;99.90
15937;DHT22;9163;48.818;8.976;2022-12-13T07:30:47;-8.00;99.90
15937;DHT22;9163;48.818;8.976;2022-12-13T07:33:14;-7.80;99.90
15937;DHT22;9163;48.818;8.976;2022-12-13T07:35:43;-7.60;99.90
15937;DHT22;9163;48.818;8.976;2022-12-13T07:38:11;-7.50;99.90
15937;DHT22;9163;48.818;8.976;2022-12-13T07:40:40;-7.30;99.90
15937;DHT22;9163;48.818;8.976;2022-12-13T07:43:08;-7.00;99.90
15937;DHT22;9163;48.818;8.976;2022-12-13T07:45:36;-6.90;99.90
15937;DHT22;9163;48.818;8.976;2022-12-13T07:48:05;-6.90;99.90
15937;DHT22;9163;48.818;8.976;2022-12-13T07:50:33;-6.80;99.90
15937;DHT22;9163;48.818;8.976;2022-12-13T07:53:04;-6.70;99.90
15937;DHT22;9163;48.818;8.976;2022-12-13T07:55:32;-6.60;99.90
15937;DHT22;9163;48.818;8.976;2022-12-13T07:58:04;-6.50;99.90
15937;DHT22;9163;48.818;8.976;2022-12-13T08:00:32;-6.20;99.90
15937;DHT22;9163;48.818;8.976;2022-12-13T08:02:59;-6.00;99.90
15937;DHT22;9163;48.818;8.976;2022-12-13T08:05:26;-5.80;99.90
15937;DHT22;9163;48.818;8.976;2022-12-13T08:07:54;-5.40;99.90
15937;DHT22;9163;48.818;8.976;2022-12-13T08:10:22;-4.80;99.90
15937;DHT22;9163;48.818;8.976;2022-12-13T08:12:50;-4.40;99.90
15937;DHT22;9163;48.818;8.976;2022-12-13T08:15:17;-4.20;99.90
15937;DHT22;9163;48.818;8.976;2022-12-13T08:17:44;-4.00;99.90
15937;DHT22;9163;48.818;8.976;2022-12-13T08:20:11;-4.00;99.90
15937;DHT22;9163;48.818;8.976;2022-12-13T08:22:39;-3.90;99.90
15937;DHT22;9163;48.818;8.976;2022-12-13T08:25:07;-3.70;99.90
15937;DHT22;9163;48.818;8.976;2022-12-13T08:27:35;-3.30;99.90
15937;DHT22;9163;48.818;8.976;2022-12-13T08:30:03;-3.00;99.90
15937;DHT22;9163;48.818;8.976;2022-12-13T08:32:30;-2.70;99.90
15937;DHT22;9163;48.818;8.976;2022-12-13T08:34:57;-2.50;99.90
15937;DHT22;9163;48.818;8.976;2022-12-13T08:37:25;-2.10;99.90
15937;DHT22;9163;48.818;8.976;2022-12-13T08:39:52;-2.00;99.90
15937;DHT22;9163;48.818;8.976;2022-12-13T08:42:19;-1.90;99.90
15937;DHT22;9163;48.818;8.976;2022-12-13T08:44:48;-1.60;99.90
15937;DHT22;9163;48.818;8.976;2022-12-13T08:47:16;-1.10;99.90
15937;DHT22;9163;48.818;8.976;2022-12-13T08:49:44;-0.40;99.90
15937;DHT22;9163;48.818;8.976;2022-12-13T08:52:12;-0.30;99.90
15937;DHT22;9163;48.818;8.976;2022-12-13T08:54:39;-0.10;99.90
15937;DHT22;9163;48.818;8.976;2022-12-13T08:57:06;0.30;99.90
15937;DHT22;9163;48.818;8.976;2022-12-13T08:59:33;0.70;99.90
15937;DHT22;9163;48.818;8.976;2022-12-13T09:02:02;1.00;99.90
15937;DHT22;9163;48.818;8.976;2022-12-13T09:04:29;1.60;99.90
15937;DHT22;9163;48.818;8.976;2022-12-13T09:06:56;2.20;99.90
15937;DHT22;9163;48.818;8.976;2022-12-13T09:09:26;2.70;99.90
15937;DHT22;9163;48.818;8.976;2022-12-13T09:11:53;3.10;99.90
15937;DHT22;9163;48.818;8.976;2022-12-13T09:14:20;3.00;99.90
15937;DHT22;9163;48.818;8.976;2022-12-13T09:16:48;2.90;99.90
15937;DHT22;9163;48.818;8.976;2022-12-13T09:19:16;2.90;99.90
15937;DHT22;9163;48.818;8.976;2022-12-13T09:21:43;3.20;99.90
15937;DHT22;9163;48.818;8.976;2022-12-13T09:24:11;3.30;99.90
15937;DHT22;9163;48.818;8.976;2022-12-13T09:26:39;3.40;99.90
15937;DHT22;9163;48.818;8.976;2022-12-13T09:29:06;4.00;99.90
15937;DHT22;9163;48.818;8.976;2022-12-13T09:31:33;4.70;99.90
15937;DHT22;9163;48.818;8.976;2022-12-13T09:34:03;4.90;99.90
15937;DHT22;9163;48.818;8.976;2022-12-13T09:36:32;5.50;99.90
15937;DHT22;9163;48.818;8.976;2022-12-13T09:38:59;5.90;99.90
15937;DHT22;9163;48.818;8.976;2022-12-13T09:41:29;5.70;99.90
15937;DHT22;9163;48.818;8.976;2022-12-13T09:43:59;5.60;99.90
15937;DHT22;9163;48.818;8.976;2022-12-13T09:46:29;5.80;99.90
15937;DHT22;9163;48.818;8.976;2022-12-13T09:48:58;5.80;99.90
15937;DHT22;9163;48.818;8.976;2022-12-13T09:51:30;5.50;99.90
15937;DHT22;9163;48.818;8.976;2022-12-13T09:54:00;5.40;99.90
15937;DHT22;9163;48.818;8.976;2022-12-13T09:56:27;5.20;99.90
15937;DHT22;9163;48.818;8.976;2022-12-13T09:58:55;5.20;99.90
15937;DHT22;9163;48.818;8.976;2022-12-13T10:01:23;5.40;99.90
15937;DHT22;9163;48.818;8.976;2022-12-13T10:03:52;5.70;99.90
15937;DHT22;9163;48.818;8.976;2022-12-13T10:06:21;5.80;99.90
15937;DHT22;9163;48.818;8.976;2022-12-13T10:08:50;5.80;99.90
15937;DHT22;9163;48.818;8.976;2022-12-13T10:11:20;5.90;99.90
15937;DHT22;9163;48.818;8.976;2022-12-13T10:13:52;6.00;99.90
15937;DHT22;9163;48.818;8.976;2022-12-13T10:16:25;5.90;99.90
15937;DHT22;9163;48.818;8.976;2022-12-13T10:18:54;5.90;99.90
15937;DHT22;9163;48.818;8.976;2022-12-13T10:21:26;6.30;99.90
15937;DHT22;9163;48.818;8.976;2022-12-13T10:23:54;6.50;99.90
15937;DHT22;9163;48.818;8.976;2022-12-13T10:26:23;6.60;99.90
15937;DHT22;9163;48.818;8.976;2022-12-13T10:29:00;6.30;99.90
15937;DHT22;9163;48.818;8.976;2022-12-13T10:31:28;6.30;99.90
15937;DHT22;9163;48.818;8.976;2022-12-13T10:33:56;5.70;99.90
15937;DHT22;9163;48.818;8.976;2022-12-13T10:36:31;5.40;99.90
15937;DHT22;9163;48.818;8.976;2022-12-13T10:38:59;5.50;99.90
15937;DHT22;9163;48.818;8.976;2022-12-13T10:41:33;5.80;99.90
15937;DHT22;9163;48.818;8.976;2022-12-13T10:44:13;6.20;99.90
15937;DHT22;9163;48.818;8.976;2022-12-13T10:46:48;6.30;99.90
15937;DHT22;9163;48.818;8.976;2022-12-13T10:49:20;5.80;99.90
15937;DHT22;9163;48.818;8.976;2022-12-13T10:51:48;5.40;99.90
15937;DHT22;9163;48.818;8.976;2022-12-13T10:54:24;5.40;99.90
15937;DHT22;9163;48.818;8.976;2022-12-13T10:56:54;5.50;99.90
15937;DHT22;9163;48.818;8.976;2022-12-13T10:59:30;5.80;99.90
15937;DHT22;9163;48.818;8.976;2022-12-13T11:01:57;5.90;99.90
15937;DHT22;9163;48.818;8.976;2022-12-13T11:04:28;6.50;99.90
15937;DHT22;9163;48.818;8.976;2022-12-13T11:06:58;6.60;99.90
15937;DHT22;9163;48.818;8.976;2022-12-13T11:09:28;6.50;99.90
15937;DHT22;9163;48.818;8.976;2022-12-13T11:12:00;6.50;99.90
15937;DHT22;9163;48.818;8.976;2022-12-13T11:14:30;6.30;99.90
15937;DHT22;9163;48.818;8.976;2022-12-13T11:17:04;5.90;99.90
15937;DHT22;9163;48.818;8.976;2022-12-13T11:19:37;6.10;99.90
15937;DHT22;9163;48.818;8.976;2022-12-13T11:22:06;5.60;99.90
15937;DHT22;9163;48.818;8.976;2022-12-13T11:24:36;5.50;99.90
15937;DHT22;9163;48.818;8.976;2022-12-13T11:27:19;6.10;99.90
15937;DHT22;9163;48.818;8.976;2022-12-13T11:30:03;6.30;99.90
15937;DHT22;9163;48.818;8.976;2022-12-13T11:32:49;6.70;99.90
15937;DHT22;9163;48.818;8.976;2022-12-13T11:35:24;6.60;99.90
15937;DHT22;9163;48.818;8.976;2022-12-13T11:38:03;6.60;99.90
15937;DHT22;9163;48.818;8.976;2022-12-13T11:40:40;6.60;99.90
15937;DHT22;9163;48.818;8.976;2022-12-13T11:43:15;6.40;99.90
15937;DHT22;9163;48.818;8.976;2022-12-13T11:45:48;6.80;99.90
15937;DHT22;9163;48.818;8.976;2022-12-13T11:48:22;6.50;99.90
15937;DHT22;9163;48.818;8.976;2022-12-13T11:50:52;6.50;99.90
15937;DHT22;9163;48.818;8.976;2022-12-13T11:53:26;6.50;99.90
15937;DHT22;9163;48.818;8.976;2022-12-13T11:56:03;6.00;99.90
15937;DHT22;9163;48.818;8.976;2022-12-13T11:58:38;5.80;99.90
15937;DHT22;9163;48.818;8.976;2022-12-13T12:01:10;5.60;99.90
15937;DHT22;9163;48.818;8.976;2022-12-13T12:03:40;5.50;99.90
15937;DHT22;9163;48.818;8.976;2022-12-13T12:06:12;5.20;99.90
15937;DHT22;9163;48.818;8.976;2022-12-13T12:08:44;5.20;99.90
15937;DHT22;9163;48.818;8.976;2022-12-13T12:11:18;4.70;99.90
15937;DHT22;9163;48.818;8.976;2022-12-13T12:13:49;5.10;99.90
15937;DHT22;9163;48.818;8.976;2022-12-13T12:16:29;5.30;99.90
15937;DHT22;9163;48.818;8.976;2022-12-13T12:18:59;5.20;99.90
15937;DHT22;9163;48.818;8.976;2022-12-13T12:21:37;5.80;99.90
15937;DHT22;9163;48.818;8.976;2022-12-13T12:24:16;6.10;99.90
15937;DHT22;9163;48.818;8.976;2022-12-13T12:26:55;6.30;99.90
15937;DHT22;9163;48.818;8.976;2022-12-13T12:29:46;5.80;99.90
15937;DHT22;9163;48.818;8.976;2022-12-13T12:32:27;5.90;99.90
15937;DHT22;9163;48.818;8.976;2022-12-13T12:35:07;6.20;99.90
15937;DHT22;9163;48.818;8.976;2022-12-13T12:37:48;6.20;99.90
15937;DHT22;9163;48.818;8.976;2022-12-13T12:40:34;5.80;99.90
15937;DHT22;9163;48.818;8.976;2022-12-13T12:43:10;5.80;99.90
15937;DHT22;9163;48.818;8.976;2022-12-13T12:45:55;6.20;99.90
15937;DHT22;9163;48.818;8.976;2022-12-13T12:48:39;6.60;99.90
15937;DHT22;9163;48.818;8.976;2022-12-13T12:51:18;6.60;99.90
15937;DHT22;9163;48.818;8.976;2022-12-13T12:53:53;6.40;99.90
15937;DHT22;9163;48.818;8.976;2022-12-13T12:56:32;6.30;99.90
15937;DHT22;9163;48.818;8.976;2022-12-13T12:59:11;6.40;99.90
15937;DHT22;9163;48.818;8.976;2022-12-13T13:01:55;6.50;99.90
15937;DHT22;9163;48.818;8.976;2022-12-13T13:04:28;6.60;99.90
15937;DHT22;9163;48.818;8.976;2022-12-13T13:07:01;6.50;99.90
15937;DHT22;9163;48.818;8.976;2022-12-13T13:09:29;6.60;99.90
15937;DHT22;9163;48.818;8.976;2022-12-13T13:11:57;7.10;99.90
15937;DHT22;9163;48.818;8.976;2022-12-13T13:14:31;7.50;99.90
15937;DHT22;9163;48.818;8.976;2022-12-13T13:20:18;7.60;99.90
15937;DHT22;9163;48.818;8.976;2022-12-13T13:22:48;7.40;99.90
15937;DHT22;9163;48.818;8.976;2022-12-13T13:25:27;7.00;99.90
15937;DHT22;9163;48.818;8.976;2022-12-13T13:28:04;6.40;99.90
15937;DHT22;9163;48.818;8.976;2022-12-13T13:30:33;6.00;99.90
15937;DHT22;9163;48.818;8.976;2022-12-13T13:33:01;5.60;99.90
15937;DHT22;9163;48.818;8.976;2022-12-13T13:35:50;5.50;99.90
15937;DHT22;9163;48.818;8.976;2022-12-13T13:38:50;5.00;99.90
15937;DHT22;9163;48.818;8.976;2022-12-13T13:41:53;4.80;99.90
15937;DHT22;9163;48.818;8.976;2022-12-13T13:47:30;4.10;99.90
15937;DHT22;9163;48.818;8.976;2022-12-13T13:50:07;3.80;99.90
15937;DHT22;9163;48.818;8.976;2022-12-13T13:52:51;3.50;99.90
15937;DHT22;9163;48.818;8.976;2022-12-13T13:55:46;3.10;99.90
15937;DHT22;9163;48.818;8.976;2022-12-13T13:58:55;2.60;99.90
15937;DHT22;9163;48.818;8.976;2022-12-13T14:01:59;2.30;99.90
15937;DHT22;9163;48.818;8.976;2022-12-13T14:05:00;2.00;99.90
15937;DHT22;9163;48.818;8.976;2022-12-13T14:07:57;1.70;99.90
15937;DHT22;9163;48.818;8.976;2022-12-13T14:10:41;1.40;99.90
15937;DHT22;9163;48.818;8.976;2022-12-13T14:13:46;1.40;99.90
15937;DHT22;9163;48.818;8.976;2022-12-13T14:16:47;1.20;99.90
15937;DHT22;9163;48.818;8.976;2022-12-13T14:19:39;1.20;99.90
15937;DHT22;9163;48.818;8.976;2022-12-13T14:22:21;1.20;99.90
15937;DHT22;9163;48.818;8.976;2022-12-13T14:25:09;1.10;99.90
15937;DHT22;9163;48.818;8.976;2022-12-13T14:27:44;0.80;99.90
15937;DHT22;9163;48.818;8.976;2022-12-13T14:30:14;0.60;99.90
15937;DHT22;9163;48.818;8.976;2022-12-13T14:32:42;0.60;99.90
15937;DHT22;9163;48.818;8.976;2022-12-13T14:35:21;0.60;99.90
15937;DHT22;9163;48.818;8.976;2022-12-13T14:37:59;0.40;99.90
15937;DHT22;9163;48.818;8.976;2022-12-13T14:40:31;0.20;99.90
15937;DHT22;9163;48.818;8.976;2022-12-13T14:42:59;0.40;99.90
15937;DHT22;9163;48.818;8.976;2022-12-13T14:45:28;0.40;99.90
15937;DHT22;9163;48.818;8.976;2022-12-13T14:47:57;0.30;99.90
15937;DHT22;9163;48.818;8.976;2022-12-13T14:50:26;0.30;99.90
15937;DHT22;9163;48.818;8.976;2022-12-13T14:52:55;0.20;99.90
15937;DHT22;9163;48.818;8.976;2022-12-13T14:55:27;-0.10;99.90
15937;DHT22;9163;48.818;8.976;2022-12-13T14:57:58;-0.20;99.90
15937;DHT22;9163;48.818;8.976;2022-12-13T15:00:29;-0.40;99.90
15937;DHT22;9163;48.818;8.976;2022-12-13T15:02:59;-0.50;99.90
15937;DHT22;9163;48.818;8.976;2022-12-13T15:05:28;-0.60;99.90
15937;DHT22;9163;48.818;8.976;2022-12-13T15:07:56;-0.60;99.90
15937;DHT22;9163;48.818;8.976;2022-12-13T15:10:31;-0.80;99.90
15937;DHT22;9163;48.818;8.976;2022-12-13T15:13:01;-0.90;99.90
15937;DHT22;9163;48.818;8.976;2022-12-13T15:15:30;-1.10;99.90
15937;DHT22;9163;48.818;8.976;2022-12-13T15:18:16;-1.20;99.90
15937;DHT22;9163;48.818;8.976;2022-12-13T15:20:44;-1.10;99.90
15937;DHT22;9163;48.818;8.976;2022-12-13T15:23:18;-1.10;99.90
15937;DHT22;9163;48.818;8.976;2022-12-13T15:25:51;-1.10;99.90
15937;DHT22;9163;48.818;8.976;2022-12-13T15:28:23;-1.20;99.90
15937;DHT22;9163;48.818;8.976;2022-12-13T15:30:53;-1.40;99.90
15937;DHT22;9163;48.818;8.976;2022-12-13T15:33:22;-1.60;99.90
15937;DHT22;9163;48.818;8.976;2022-12-13T15:36:02;-1.70;99.90
15937;DHT22;9163;48.818;8.976;2022-12-13T15:38:30;-1.80;99.90
15937;DHT22;9163;48.818;8.976;2022-12-13T15:40:57;-1.90;99.90
15937;DHT22;9163;48.818;8.976;2022-12-13T15:43:32;-2.00;99.90
15937;DHT22;9163;48.818;8.976;2022-12-13T15:46:01;-2.10;99.90
15937;DHT22;9163;48.818;8.976;2022-12-13T15:48:29;-2.20;99.90
15937;DHT22;9163;48.818;8.976;2022-12-13T15:51:06;-2.30;99.90
15937;DHT22;9163;48.818;8.976;2022-12-13T15:53:35;-2.50;99.90
15937;DHT22;9163;48.818;8.976;2022-12-13T15:56:26;-2.50;99.90
15937;DHT22;9163;48.818;8.976;2022-12-13T15:58:56;-2.50;99.90
15937;DHT22;9163;48.818;8.976;2022-12-13T16:01:25;-2.60;99.90
15937;DHT22;9163;48.818;8.976;2022-12-13T16:03:53;-2.60;99.90
15937;DHT22;9163;48.818;8.976;2022-12-13T16:06:22;-2.70;99.90
15937;DHT22;9163;48.818;8.976;2022-12-13T16:08:55;-2.70;99.90
15937;DHT22;9163;48.818;8.976;2022-12-13T16:11:27;-2.70;99.90
15937;DHT22;9163;48.818;8.976;2022-12-13T16:14:29;-2.90;99.90
15937;DHT22;9163;48.818;8.976;2022-12-13T16:17:02;-2.90;99.90
15937;DHT22;9163;48.818;8.976;2022-12-13T16:19:31;-2.90;99.90
15937;DHT22;9163;48.818;8.976;2022-12-13T16:21:58;-2.90;99.90
15937;DHT22;9163;48.818;8.976;2022-12-13T16:24:25;-3.00;99.90
15937;DHT22;9163;48.818;8.976;2022-12-13T16:26:52;-3.00;99.90